createdAt,value
2019-04-30T00:00:22.939Z,66.64
2019-04-30T00:01:22.932Z,66.74
2019-04-30T00:02:22.924Z,66.64
2019-04-30T00:03:24.915Z,66.64
2019-04-30T00:04:22.902Z,66.53
2019-04-30T00:05:22.906Z,66.33
2019-04-30T00:06:28.798Z,66.61
2019-04-30T00:07:24.868Z,66.50
2019-04-30T00:08:22.872Z,66.19
2019-04-30T00:09:22.844Z,66.40
2019-04-30T00:10:29.073Z,66.02
2019-04-30T00:11:25.096Z,66.30
2019-04-30T00:12:22.828Z,66.19
2019-04-30T00:13:22.821Z,66.30
2019-04-30T00:14:22.794Z,65.99
2019-04-30T00:15:22.782Z,66.09
2019-04-30T00:16:22.777Z,66.30
2019-04-30T00:17:22.756Z,66.30
2019-04-30T00:18:22.765Z,66.30
2019-04-30T00:19:22.735Z,67.02
2019-04-30T00:20:22.749Z,66.22
2019-04-30T00:21:22.729Z,66.43
2019-04-30T00:22:31.718Z,66.84
2019-04-30T00:23:27.219Z,67.25
2019-04-30T00:24:25.845Z,66.94
2019-04-30T00:25:24.962Z,67.29
2019-04-30T00:26:25.314Z,67.18
2019-04-30T00:27:28.400Z,67.18
2019-04-30T00:28:25.419Z,67.08
2019-04-30T00:29:26.926Z,67.18
2019-04-30T00:30:25.228Z,67.63
2019-04-30T00:31:23.867Z,68.04
2019-04-30T00:32:22.596Z,67.93
2019-04-30T00:33:25.119Z,68.14
2019-04-30T00:34:22.572Z,68.04
2019-04-30T00:35:22.563Z,67.80
2019-04-30T00:36:27.131Z,67.90
2019-04-30T00:37:25.342Z,67.80
2019-04-30T00:38:22.551Z,67.70
2019-04-30T00:39:22.523Z,67.60
2019-04-30T00:40:26.790Z,67.60
2019-04-30T00:41:25.535Z,67.60
2019-04-30T00:42:24.456Z,67.60
2019-04-30T00:43:25.200Z,67.49
2019-04-30T00:44:24.826Z,67.83
2019-04-30T00:45:25.128Z,67.93
2019-04-30T00:46:24.927Z,68.04
2019-04-30T00:47:25.257Z,68.14
2019-04-30T00:48:28.021Z,67.83
2019-04-30T00:49:26.495Z,67.93
2019-04-30T00:50:22.399Z,67.97
2019-04-30T00:51:22.417Z,67.97
2019-04-30T00:52:22.381Z,68.48
2019-04-30T00:53:22.368Z,68.48
2019-04-30T00:54:27.101Z,67.86
2019-04-30T00:55:24.913Z,68.27
2019-04-30T00:56:24.808Z,67.97
2019-04-30T00:57:26.303Z,68.79
2019-04-30T00:58:29.008Z,68.59
2019-04-30T00:59:24.937Z,68.48
2019-04-30T01:00:25.961Z,68.48
2019-04-30T01:01:25.201Z,68.79
2019-04-30T01:02:30.470Z,68.69
2019-04-30T01:03:23.278Z,68.59
2019-04-30T01:04:24.473Z,68.38
2019-04-30T01:05:23.237Z,68.48
2019-04-30T01:06:24.617Z,68.07
2019-04-30T01:07:23.213Z,68.17
2019-04-30T01:08:27.197Z,68.07
2019-04-30T01:09:23.214Z,68.59
2019-04-30T01:10:24.755Z,68.41
2019-04-30T01:11:23.171Z,68.38
2019-04-30T01:12:27.707Z,68.69
2019-04-30T01:13:23.169Z,68.79
2019-04-30T01:14:23.281Z,68.69
2019-04-30T01:15:22.173Z,68.69
2019-04-30T01:16:23.648Z,68.48
2019-04-30T01:17:23.111Z,68.17
2019-04-30T01:18:23.506Z,68.07
2019-04-30T01:19:30.073Z,68.27
2019-04-30T01:20:24.072Z,68.24
2019-04-30T01:21:23.064Z,68.04
2019-04-30T01:22:28.431Z,68.07
2019-04-30T01:23:23.042Z,68.04
2019-04-30T01:24:23.472Z,68.14
2019-04-30T01:25:23.038Z,68.04
2019-04-30T01:26:22.862Z,68.04
2019-04-30T01:27:22.003Z,68.04
2019-04-30T01:28:24.300Z,68.04
2019-04-30T01:29:21.984Z,67.97
2019-04-30T01:30:22.886Z,68.27
2019-04-30T01:31:21.971Z,68.69
2019-04-30T01:32:21.950Z,68.27
2019-04-30T01:33:21.942Z,68.17
2019-04-30T01:34:21.929Z,68.79
2019-04-30T01:35:23.933Z,68.69
2019-04-30T01:36:22.903Z,68.38
2019-04-30T01:37:28.450Z,68.90
2019-04-30T01:38:22.884Z,68.79
2019-04-30T01:39:23.756Z,68.48
2019-04-30T01:40:22.877Z,68.27
2019-04-30T01:41:27.476Z,68.69
2019-04-30T01:42:22.833Z,68.17
2019-04-30T01:43:30.571Z,68.07
2019-04-30T01:44:22.821Z,68.07
2019-04-30T01:45:23.146Z,68.17
2019-04-30T01:46:22.801Z,68.48
2019-04-30T01:47:27.843Z,68.90
2019-04-30T01:48:22.771Z,68.69
2019-04-30T01:49:25.652Z,68.82
2019-04-30T01:50:22.768Z,69.34
2019-04-30T01:51:21.974Z,68.51
2019-04-30T01:52:21.727Z,69.54
2019-04-30T01:53:21.720Z,69.99
2019-04-30T01:54:24.321Z,70.09
2019-04-30T01:55:21.715Z,70.51
2019-04-30T01:56:21.690Z,70.72
2019-04-30T01:57:21.695Z,71.02
2019-04-30T01:58:21.665Z,71.26
2019-04-30T01:59:21.692Z,71.16
2019-04-30T02:00:21.664Z,70.85
2019-04-30T02:01:21.642Z,70.95
2019-04-30T02:02:21.620Z,70.85
2019-04-30T02:03:21.615Z,71.02
2019-04-30T02:04:21.600Z,71.12
2019-04-30T02:05:21.610Z,71.06
2019-04-30T02:06:21.580Z,71.16
2019-04-30T02:07:21.566Z,71.26
2019-04-30T02:08:21.560Z,71.47
2019-04-30T02:09:21.545Z,71.37
2019-04-30T02:10:21.560Z,71.06
2019-04-30T02:11:21.524Z,70.95
2019-04-30T02:12:21.896Z,71.16
2019-04-30T02:13:21.504Z,70.85
2019-04-30T02:14:21.489Z,71.06
2019-04-30T02:15:21.508Z,70.95
2019-04-30T02:16:21.472Z,70.85
2019-04-30T02:17:21.479Z,71.47
2019-04-30T02:18:21.456Z,71.47
2019-04-30T02:19:21.440Z,71.37
2019-04-30T02:20:21.450Z,71.67
2019-04-30T02:21:21.415Z,71.57
2019-04-30T02:22:21.410Z,71.98
2019-04-30T02:23:21.394Z,71.88
2019-04-30T02:24:21.386Z,71.92
2019-04-30T02:25:21.373Z,71.88
2019-04-30T02:26:21.388Z,71.92
2019-04-30T02:27:21.682Z,72.33
2019-04-30T02:28:21.345Z,72.43
2019-04-30T02:29:21.336Z,72.33
2019-04-30T02:30:21.318Z,72.22
2019-04-30T02:31:22.832Z,72.33
2019-04-30T02:32:21.295Z,72.22
2019-04-30T02:33:21.291Z,72.43
2019-04-30T02:34:22.214Z,71.92
2019-04-30T02:35:21.266Z,71.81
2019-04-30T02:36:21.271Z,72.33
2019-04-30T02:37:21.249Z,72.43
2019-04-30T02:38:21.239Z,72.22
2019-04-30T02:39:21.227Z,71.78
2019-04-30T02:40:21.216Z,71.61
2019-04-30T02:41:21.214Z,71.92
2019-04-30T02:42:21.187Z,71.61
2019-04-30T02:43:21.174Z,71.61
2019-04-30T02:44:21.166Z,71.92
2019-04-30T02:45:21.167Z,72.22
2019-04-30T02:46:21.182Z,72.02
2019-04-30T02:47:21.132Z,71.50
2019-04-30T02:48:21.150Z,71.40
2019-04-30T02:49:21.112Z,71.40
2019-04-30T02:50:22.572Z,71.71
2019-04-30T02:51:22.930Z,71.64
2019-04-30T02:52:21.080Z,71.84
2019-04-30T02:53:21.068Z,72.26
2019-04-30T02:54:23.890Z,71.95
2019-04-30T02:55:21.046Z,71.95
2019-04-30T02:56:21.156Z,72.05
2019-04-30T02:57:23.468Z,72.05
2019-04-30T02:58:21.254Z,71.74
2019-04-30T02:59:21.014Z,71.74
2019-04-30T03:00:21.120Z,72.26
2019-04-30T03:01:21.014Z,72.16
2019-04-30T03:02:20.979Z,71.88
2019-04-30T03:03:20.961Z,72.05
2019-04-30T03:04:20.951Z,72.05
2019-04-30T03:05:20.944Z,71.98
2019-04-30T03:06:23.684Z,72.39
2019-04-30T03:07:20.924Z,72.29
2019-04-30T03:08:20.905Z,72.19
2019-04-30T03:09:20.899Z,72.39
2019-04-30T03:10:20.886Z,72.39
2019-04-30T03:11:21.153Z,72.19
2019-04-30T03:12:20.905Z,72.50
2019-04-30T03:13:20.871Z,72.19
2019-04-30T03:14:20.841Z,72.08
2019-04-30T03:15:22.756Z,72.81
2019-04-30T03:16:21.036Z,72.74
2019-04-30T03:17:21.124Z,72.64
2019-04-30T03:18:22.969Z,72.08
2019-04-30T03:19:20.802Z,72.33
2019-04-30T03:20:34.606Z,71.88
2019-04-30T03:21:21.782Z,72.50
2019-04-30T03:22:20.757Z,72.08
2019-04-30T03:23:20.751Z,71.67
2019-04-30T03:24:20.734Z,71.47
2019-04-30T03:25:20.727Z,71.67
2019-04-30T03:26:20.715Z,71.88
2019-04-30T03:27:24.472Z,72.02
2019-04-30T03:28:20.689Z,71.78
2019-04-30T03:29:23.900Z,72.02
2019-04-30T03:30:21.942Z,71.67
2019-04-30T03:31:22.381Z,71.57
2019-04-30T03:32:22.505Z,71.67
2019-04-30T03:33:22.912Z,71.91
2019-04-30T03:34:25.604Z,71.91
2019-04-30T03:35:23.129Z,71.60
2019-04-30T03:36:21.923Z,71.60
2019-04-30T03:37:20.607Z,72.08
2019-04-30T03:38:20.587Z,72.02
2019-04-30T03:39:20.576Z,71.91
2019-04-30T03:40:20.569Z,71.70
2019-04-30T03:41:20.553Z,71.91
2019-04-30T03:42:20.568Z,72.02
2019-04-30T03:43:20.535Z,72.33
2019-04-30T03:44:25.489Z,72.74
2019-04-30T03:45:21.515Z,72.22
2019-04-30T03:46:20.497Z,72.33
2019-04-30T03:47:20.555Z,72.22
2019-04-30T03:48:20.478Z,72.15
2019-04-30T03:49:20.537Z,72.15
2019-04-30T03:50:20.451Z,72.74
2019-04-30T03:51:20.479Z,72.67
2019-04-30T03:52:20.457Z,72.67
2019-04-30T03:53:20.434Z,72.77
2019-04-30T03:54:20.412Z,72.67
2019-04-30T03:55:22.948Z,72.98
2019-04-30T03:56:22.824Z,72.98
2019-04-30T03:57:20.751Z,72.05
2019-04-30T03:58:21.455Z,72.12
2019-04-30T03:59:20.356Z,72.33
2019-04-30T04:00:20.500Z,72.43
2019-04-30T04:01:20.341Z,72.64
2019-04-30T04:02:20.979Z,72.56
2019-04-30T04:03:20.327Z,72.25
2019-04-30T04:04:20.312Z,72.67
2019-04-30T04:05:20.350Z,72.77
2019-04-30T04:06:21.466Z,72.88
2019-04-30T04:07:20.491Z,72.77
2019-04-30T04:08:20.300Z,72.67
2019-04-30T04:09:22.300Z,72.64
2019-04-30T04:10:20.241Z,72.12
2019-04-30T04:11:20.235Z,72.22
2019-04-30T04:12:20.724Z,72.53
2019-04-30T04:13:20.226Z,72.64
2019-04-30T04:14:20.194Z,71.81
2019-04-30T04:15:20.186Z,72.22
2019-04-30T04:16:20.180Z,72.22
2019-04-30T04:17:20.439Z,72.74
2019-04-30T04:18:20.390Z,72.64
2019-04-30T04:19:20.145Z,72.74
2019-04-30T04:20:20.471Z,72.12
2019-04-30T04:21:20.740Z,72.12
2019-04-30T04:22:20.768Z,72.43
2019-04-30T04:23:20.132Z,72.33
2019-04-30T04:24:20.604Z,72.43
2019-04-30T04:25:20.574Z,72.22
2019-04-30T04:26:20.387Z,72.22
2019-04-30T04:27:20.055Z,72.22
2019-04-30T04:28:20.374Z,72.53
2019-04-30T04:29:20.070Z,72.33
2019-04-30T04:30:20.585Z,72.43
2019-04-30T04:31:20.028Z,72.33
2019-04-30T04:32:23.949Z,72.33
2019-04-30T04:33:20.211Z,72.43
2019-04-30T04:34:20.058Z,72.43
2019-04-30T04:35:20.112Z,72.12
2019-04-30T04:36:20.156Z,72.33
2019-04-30T04:37:20.547Z,72.12
2019-04-30T04:38:20.576Z,72.12
2019-04-30T04:39:20.427Z,72.02
2019-04-30T04:40:21.109Z,72.08
2019-04-30T04:41:19.961Z,72.19
2019-04-30T04:42:19.990Z,72.22
2019-04-30T04:43:20.284Z,72.08
2019-04-30T04:44:20.491Z,72.19
2019-04-30T04:45:20.069Z,71.98
2019-04-30T04:46:20.542Z,72.19
2019-04-30T04:47:20.450Z,72.39
2019-04-30T04:48:23.256Z,72.39
2019-04-30T04:49:20.749Z,72.22
2019-04-30T04:50:20.237Z,72.50
2019-04-30T04:51:31.466Z,71.88
2019-04-30T04:52:22.002Z,72.50
2019-04-30T04:53:19.813Z,72.08
2019-04-30T04:54:20.342Z,72.81
2019-04-30T04:55:22.132Z,72.08
2019-04-30T04:56:19.744Z,72.26
2019-04-30T04:57:22.729Z,72.39
2019-04-30T04:58:21.479Z,72.26
2019-04-30T04:59:20.177Z,72.26
2019-04-30T05:00:19.713Z,71.95
2019-04-30T05:01:20.387Z,72.26
2019-04-30T05:02:19.680Z,71.95
2019-04-30T05:03:20.202Z,71.81
2019-04-30T05:04:20.119Z,72.02
2019-04-30T05:05:19.669Z,71.92
2019-04-30T05:06:21.743Z,71.61
2019-04-30T05:07:19.701Z,71.81
2019-04-30T05:08:19.614Z,71.40
2019-04-30T05:09:19.633Z,70.85
2019-04-30T05:10:19.592Z,70.88
2019-04-30T05:11:19.594Z,71.30
2019-04-30T05:13:20.560Z,71.30
2019-04-30T05:14:40.600Z,71.06
2019-04-30T05:15:19.612Z,71.30
2019-04-30T05:16:19.526Z,71.40
2019-04-30T05:17:40.515Z,71.06
2019-04-30T05:18:19.509Z,71.26
2019-04-30T05:19:19.514Z,71.47
2019-04-30T05:20:19.624Z,71.09
2019-04-30T05:21:19.481Z,71.26
2019-04-30T05:22:19.465Z,71.37
2019-04-30T05:23:21.925Z,71.26
2019-04-30T05:24:19.469Z,71.06
2019-04-30T05:25:19.439Z,70.95
2019-04-30T05:26:19.416Z,70.95
2019-04-30T05:27:19.808Z,70.85
2019-04-30T05:28:19.394Z,70.95
2019-04-30T05:29:19.409Z,71.16
2019-04-30T05:30:19.940Z,71.23
2019-04-30T05:31:21.144Z,70.61
2019-04-30T05:33:20.515Z,69.65
2019-04-30T05:34:19.331Z,69.65
2019-04-30T05:35:19.353Z,68.79
2019-04-30T05:36:19.343Z,68.24
2019-04-30T05:37:19.318Z,67.83
2019-04-30T05:38:19.287Z,67.73
2019-04-30T05:39:19.278Z,67.83
2019-04-30T05:40:19.297Z,67.83
2019-04-30T05:41:19.398Z,67.73
2019-04-30T05:42:19.251Z,68.14
2019-04-30T05:43:19.387Z,68.04
2019-04-30T05:44:19.226Z,68.14
2019-04-30T05:45:19.414Z,67.93
2019-04-30T05:46:19.590Z,68.04
2019-04-30T05:47:19.722Z,68.04
2019-04-30T05:48:19.199Z,68.14
2019-04-30T05:49:20.474Z,67.93
2019-04-30T05:50:19.996Z,67.80
2019-04-30T05:51:21.133Z,68.14
2019-04-30T05:52:19.976Z,68.01
2019-04-30T05:53:19.171Z,68.01
2019-04-30T05:54:19.128Z,67.49
2019-04-30T05:55:19.760Z,67.08
2019-04-30T05:56:19.411Z,67.08
2019-04-30T05:57:19.763Z,67.39
2019-04-30T05:58:19.827Z,67.70
2019-04-30T05:59:20.657Z,67.15
2019-04-30T06:00:19.272Z,67.25
2019-04-30T06:01:19.743Z,67.36
2019-04-30T06:02:19.515Z,67.15
2019-04-30T06:03:27.665Z,66.33
2019-04-30T06:04:20.018Z,66.19
2019-04-30T06:05:19.027Z,66.19
2019-04-30T06:06:19.452Z,65.68
2019-04-30T06:07:19.135Z,65.89
2019-04-30T06:08:19.264Z,65.89
2019-04-30T06:09:30.472Z,65.44
2019-04-30T06:10:19.953Z,64.93
2019-04-30T06:11:19.317Z,64.83
2019-04-30T06:12:20.299Z,65.44
2019-04-30T06:13:19.076Z,64.93
2019-04-30T06:14:18.900Z,64.28
2019-04-30T06:15:19.378Z,64.18
2019-04-30T06:16:18.925Z,64.18
2019-04-30T06:17:19.692Z,64.07
2019-04-30T06:18:20.422Z,63.87
2019-04-30T06:19:19.588Z,63.46
2019-04-30T06:20:20.998Z,63.15
2019-04-30T06:21:21.337Z,64.69
2019-04-30T06:22:19.129Z,64.87
2019-04-30T06:23:19.486Z,66.20
2019-04-30T06:24:18.876Z,63.94
2019-04-30T06:25:30.648Z,64.94
2019-04-30T06:26:20.691Z,65.35
2019-04-30T06:27:19.249Z,63.57
2019-04-30T06:28:19.586Z,61.93
2019-04-30T06:29:19.027Z,61.32
2019-04-30T06:30:19.810Z,60.91
2019-04-30T06:31:31.677Z,60.49
2019-04-30T06:32:19.726Z,60.60
2019-04-30T06:33:19.317Z,59.77
2019-04-30T06:34:19.765Z,59.47
2019-04-30T06:35:19.369Z,59.36
2019-04-30T06:36:19.117Z,59.88
2019-04-30T06:37:19.489Z,59.16
2019-04-30T06:38:18.654Z,58.54
2019-04-30T06:39:18.861Z,58.95
2019-04-30T06:40:19.622Z,58.85
2019-04-30T06:41:19.826Z,58.85
2019-04-30T06:42:19.476Z,59.47
2019-04-30T06:43:19.054Z,58.62
2019-04-30T06:44:19.487Z,57.70
2019-04-30T06:45:19.140Z,57.49
2019-04-30T06:46:18.813Z,57.41
2019-04-30T06:47:20.066Z,58.00
2019-04-30T06:48:19.960Z,56.87
2019-04-30T06:49:19.469Z,56.56
2019-04-30T06:50:19.427Z,56.87
2019-04-30T06:51:19.009Z,56.87
2019-04-30T06:52:22.991Z,57.59
2019-04-30T06:53:19.476Z,57.18
2019-04-30T06:54:19.165Z,56.95
2019-04-30T06:55:19.268Z,56.74
2019-04-30T06:56:18.945Z,56.85
2019-04-30T06:57:19.904Z,56.02
2019-04-30T06:58:20.555Z,55.92
2019-04-30T06:59:20.274Z,56.02
2019-04-30T07:00:20.672Z,54.97
2019-04-30T07:01:19.432Z,55.00
2019-04-30T07:02:19.692Z,54.90
2019-04-30T07:03:19.128Z,54.97
2019-04-30T07:04:19.472Z,54.36
2019-04-30T07:05:18.692Z,55.18
2019-04-30T07:06:29.165Z,54.57
2019-04-30T07:07:23.046Z,54.46
2019-04-30T07:08:19.320Z,54.25
2019-04-30T07:09:19.699Z,53.33
2019-04-30T07:10:20.315Z,52.72
2019-04-30T07:11:19.502Z,53.00
2019-04-30T07:12:27.328Z,52.80
2019-04-30T07:13:19.269Z,52.49
2019-04-30T07:14:19.560Z,51.77
2019-04-30T07:15:19.676Z,52.39
2019-04-30T07:16:19.017Z,51.67
2019-04-30T07:17:19.529Z,52.67
2019-04-30T07:18:18.997Z,52.47
2019-04-30T07:19:30.067Z,51.98
2019-04-30T07:20:19.318Z,52.36
2019-04-30T07:21:19.832Z,51.75
2019-04-30T07:22:20.707Z,50.82
2019-04-30T07:23:19.148Z,50.82
2019-04-30T07:24:20.796Z,51.44
2019-04-30T07:25:19.551Z,50.52
2019-04-30T07:26:22.722Z,50.52
2019-04-30T07:27:23.910Z,50.72
2019-04-30T07:28:19.151Z,50.10
2019-04-30T07:29:19.618Z,50.09
2019-04-30T07:30:19.260Z,50.70
2019-04-30T07:31:19.227Z,50.10
2019-04-30T07:32:19.769Z,50.52
2019-04-30T07:33:20.726Z,49.90
2019-04-30T07:34:19.660Z,50.52
2019-04-30T07:35:19.610Z,49.88
2019-04-30T07:36:19.511Z,50.09
2019-04-30T07:37:24.215Z,48.96
2019-04-30T07:38:19.464Z,49.06
2019-04-30T07:39:19.228Z,48.93
2019-04-30T07:40:19.016Z,48.55
2019-04-30T07:41:19.044Z,48.11
2019-04-30T07:42:19.276Z,48.83
2019-04-30T07:43:18.980Z,48.83
2019-04-30T07:44:32.646Z,48.52
2019-04-30T07:45:19.601Z,48.52
2019-04-30T07:46:19.797Z,48.63
2019-04-30T07:47:19.436Z,48.52
2019-04-30T07:48:21.130Z,47.60
2019-04-30T07:49:20.573Z,48.09
2019-04-30T07:50:20.802Z,47.50
2019-04-30T07:51:20.953Z,47.71
2019-04-30T07:52:20.995Z,47.27
2019-04-30T07:53:18.796Z,47.38
2019-04-30T07:54:18.952Z,48.09
2019-04-30T07:55:19.628Z,48.19
2019-04-30T07:56:25.614Z,48.19
2019-04-30T07:57:19.361Z,47.45
2019-04-30T07:58:20.477Z,47.66
2019-04-30T07:59:19.941Z,47.45
2019-04-30T08:00:19.410Z,47.35
2019-04-30T08:01:19.567Z,46.12
2019-04-30T08:02:20.576Z,46.31
2019-04-30T08:03:20.616Z,45.90
2019-04-30T08:04:18.838Z,45.72
2019-04-30T08:05:19.874Z,45.51
2019-04-30T08:06:19.040Z,45.29
2019-04-30T08:07:19.684Z,46.00
2019-04-30T08:08:25.123Z,45.41
2019-04-30T08:09:19.679Z,45.29
2019-04-30T08:10:18.816Z,44.98
2019-04-30T08:11:25.744Z,45.18
2019-04-30T08:12:25.798Z,45.70
2019-04-30T08:13:21.224Z,44.26
2019-04-30T08:14:18.781Z,43.35
2019-04-30T08:15:19.621Z,43.32
2019-04-30T08:16:18.702Z,44.06
2019-04-30T08:17:18.833Z,43.76
2019-04-30T08:18:18.470Z,44.26
2019-04-30T08:19:19.121Z,43.02
2019-04-30T08:20:19.494Z,43.12
2019-04-30T08:21:18.987Z,43.32
2019-04-30T08:22:19.472Z,44.04
2019-04-30T08:23:33.483Z,43.12
2019-04-30T08:24:19.339Z,42.90
2019-04-30T08:25:19.830Z,41.77
2019-04-30T08:26:18.799Z,42.69
2019-04-30T08:27:19.131Z,42.90
2019-04-30T08:28:18.714Z,42.90
2019-04-30T08:29:19.413Z,41.88
2019-04-30T08:30:23.945Z,40.95
2019-04-30T08:31:19.586Z,40.95
2019-04-30T08:32:19.063Z,41.26
2019-04-30T08:33:19.229Z,40.55
2019-04-30T08:34:17.382Z,41.24
2019-04-30T08:35:19.536Z,40.83
2019-04-30T08:36:19.531Z,40.63
2019-04-30T08:37:19.612Z,40.42
2019-04-30T08:38:19.088Z,40.32
2019-04-30T08:39:17.320Z,40.94
2019-04-30T08:40:19.019Z,40.41
2019-04-30T08:41:19.161Z,39.81
2019-04-30T08:42:28.988Z,40.53
2019-04-30T08:43:19.859Z,40.71
2019-04-30T08:44:20.871Z,40.20
2019-04-30T08:45:17.257Z,40.42
2019-04-30T08:46:19.051Z,41.02
2019-04-30T08:47:18.783Z,41.33
2019-04-30T08:48:18.966Z,40.71
2019-04-30T08:49:19.363Z,40.61
2019-04-30T08:50:19.584Z,40.41
2019-04-30T08:51:19.078Z,40.90
2019-04-30T08:52:19.232Z,39.98
2019-04-30T08:53:27.545Z,39.78
2019-04-30T08:54:19.712Z,38.76
2019-04-30T08:55:19.651Z,38.04
2019-04-30T08:56:21.680Z,38.65
2019-04-30T08:57:19.094Z,39.37
2019-04-30T08:58:20.331Z,38.55
2019-04-30T08:59:19.176Z,39.45
2019-04-30T09:00:17.112Z,39.25
2019-04-30T09:01:19.217Z,39.15
2019-04-30T09:02:19.551Z,39.86
2019-04-30T09:03:17.075Z,39.55
2019-04-30T09:04:17.051Z,39.35
2019-04-30T09:05:18.548Z,39.55
2019-04-30T09:06:17.037Z,39.55
2019-04-30T09:07:17.023Z,38.02
2019-04-30T09:08:17.055Z,38.02
2019-04-30T09:09:18.797Z,37.82
2019-04-30T09:10:19.103Z,38.12
2019-04-30T09:11:25.298Z,37.70
2019-04-30T09:12:19.613Z,37.49
2019-04-30T09:13:19.059Z,38.51
2019-04-30T09:14:18.699Z,37.60
2019-04-30T09:15:18.727Z,37.29
2019-04-30T09:16:16.921Z,37.70
2019-04-30T09:17:16.921Z,37.19
2019-04-30T09:18:18.931Z,36.46
2019-04-30T09:19:16.898Z,36.16
2019-04-30T09:20:16.894Z,36.68
2019-04-30T09:21:18.651Z,36.66
2019-04-30T09:22:16.876Z,36.56
2019-04-30T09:23:18.641Z,36.25
2019-04-30T09:24:16.846Z,36.34
2019-04-30T09:25:16.827Z,36.75
2019-04-30T09:26:18.668Z,36.55
2019-04-30T09:27:16.802Z,36.14
2019-04-30T09:28:16.806Z,36.65
2019-04-30T09:29:16.777Z,36.24
2019-04-30T09:30:18.696Z,36.75
2019-04-30T09:31:16.764Z,36.24
2019-04-30T09:32:16.747Z,36.24
2019-04-30T09:33:16.758Z,36.22
2019-04-30T09:34:18.582Z,36.73
2019-04-30T09:35:16.713Z,36.22
2019-04-30T09:36:16.865Z,35.31
2019-04-30T09:37:18.524Z,35.92
2019-04-30T09:38:16.698Z,35.00
2019-04-30T09:39:16.677Z,35.00
2019-04-30T09:40:20.504Z,35.41
2019-04-30T09:41:16.658Z,35.21
2019-04-30T09:42:16.639Z,36.12
2019-04-30T09:43:18.299Z,36.00
2019-04-30T09:44:16.608Z,35.60
2019-04-30T09:45:18.581Z,35.80
2019-04-30T09:46:25.950Z,34.27
2019-04-30T09:47:17.578Z,34.05
2019-04-30T09:48:18.827Z,34.26
2019-04-30T09:49:16.571Z,34.05
2019-04-30T09:50:16.555Z,34.05
2019-04-30T09:51:16.952Z,34.36
2019-04-30T09:52:18.834Z,34.05
2019-04-30T09:53:16.749Z,33.85
2019-04-30T09:54:16.922Z,33.75
2019-04-30T09:55:16.490Z,34.46
2019-04-30T09:56:16.498Z,32.83
2019-04-30T09:57:16.480Z,33.54
2019-04-30T09:58:18.251Z,32.41
2019-04-30T09:59:16.464Z,32.92
2019-04-30T10:00:16.441Z,32.43
2019-04-30T10:01:16.429Z,33.83
2019-04-30T10:02:16.428Z,33.24
2019-04-30T10:03:19.058Z,32.41
2019-04-30T10:04:16.982Z,32.92
2019-04-30T10:05:18.058Z,33.02
2019-04-30T10:06:16.380Z,32.90
2019-04-30T10:07:16.419Z,32.62
2019-04-30T10:08:16.355Z,32.40
2019-04-30T10:09:16.347Z,32.70
2019-04-30T10:10:16.356Z,32.60
2019-04-30T10:11:16.315Z,32.50
2019-04-30T10:12:16.346Z,32.80
2019-04-30T10:13:16.343Z,32.60
2019-04-30T10:14:16.309Z,31.79
2019-04-30T10:15:16.279Z,31.57
2019-04-30T10:16:16.265Z,30.77
2019-04-30T10:17:16.248Z,30.36
2019-04-30T10:18:16.272Z,31.08
2019-04-30T10:19:16.233Z,31.47
2019-04-30T10:20:16.223Z,31.77
2019-04-30T10:21:16.211Z,32.38
2019-04-30T10:22:16.208Z,32.28
2019-04-30T10:23:16.217Z,32.28
2019-04-30T10:24:16.186Z,31.77
2019-04-30T10:25:16.173Z,31.37
2019-04-30T10:26:16.156Z,31.37
2019-04-30T10:27:16.147Z,30.96
2019-04-30T10:28:16.154Z,30.96
2019-04-30T10:29:16.131Z,30.55
2019-04-30T10:30:16.114Z,29.93
2019-04-30T10:31:16.113Z,29.73
2019-04-30T10:32:16.087Z,29.63
2019-04-30T10:33:16.096Z,29.22
2019-04-30T10:34:16.064Z,29.52
2019-04-30T10:35:16.061Z,30.54
2019-04-30T10:36:16.055Z,30.44
2019-04-30T10:37:16.042Z,30.54
2019-04-30T10:38:16.060Z,30.93
2019-04-30T10:39:16.018Z,29.93
2019-04-30T10:40:15.997Z,30.43
2019-04-30T10:41:15.989Z,30.02
2019-04-30T10:42:15.981Z,30.02
2019-04-30T10:43:16.000Z,29.00
2019-04-30T10:44:16.194Z,28.30
2019-04-30T10:45:15.957Z,28.30
2019-04-30T10:46:15.941Z,28.19
2019-04-30T10:47:15.926Z,28.80
2019-04-30T10:48:15.928Z,29.00
2019-04-30T10:49:15.967Z,28.90
2019-04-30T10:50:15.892Z,28.09
2019-04-30T10:51:15.880Z,28.50
2019-04-30T10:52:15.868Z,28.80
2019-04-30T10:53:15.862Z,28.30
2019-04-30T10:54:24.143Z,28.28
2019-04-30T10:55:16.841Z,28.69
2019-04-30T10:56:15.830Z,28.79
2019-04-30T10:57:15.823Z,28.08
2019-04-30T10:58:15.803Z,28.49
2019-04-30T10:59:15.814Z,29.09
2019-04-30T11:00:15.782Z,28.08
2019-04-30T11:01:15.772Z,27.67
2019-04-30T11:02:15.764Z,28.18
2019-04-30T11:03:19.848Z,28.28
2019-04-30T11:04:16.750Z,28.99
2019-04-30T11:05:15.735Z,28.98
2019-04-30T11:06:15.718Z,28.77
2019-04-30T11:07:15.708Z,28.77
2019-04-30T11:08:15.708Z,28.85
2019-04-30T11:09:15.716Z,28.12
2019-04-30T11:10:15.707Z,26.89
2019-04-30T11:11:15.666Z,26.65
2019-04-30T11:12:15.646Z,25.10
2019-04-30T11:13:15.649Z,24.35
2019-04-30T11:14:15.659Z,24.03
2019-04-30T11:15:15.614Z,23.11
2019-04-30T11:16:15.759Z,22.71
2019-04-30T11:17:15.736Z,22.18
2019-04-30T11:18:15.850Z,22.45
2019-04-30T11:19:15.832Z,22.73
2019-04-30T11:20:15.797Z,21.31
2019-04-30T11:21:15.734Z,20.70
2019-04-30T11:22:15.692Z,20.09
2019-04-30T11:23:15.748Z,20.07
2019-04-30T11:24:15.749Z,21.06
2019-04-30T11:25:15.710Z,20.65
2019-04-30T11:26:15.978Z,20.62
2019-04-30T11:27:16.127Z,20.53
2019-04-30T11:28:15.890Z,19.92
2019-04-30T11:29:15.729Z,19.72
2019-04-30T11:30:21.369Z,19.94
2019-04-30T11:31:16.792Z,20.24
2019-04-30T11:32:15.613Z,19.95
2019-04-30T11:33:15.713Z,20.46
2019-04-30T11:34:15.424Z,20.65
2019-04-30T11:35:15.433Z,19.54
2019-04-30T11:36:15.414Z,20.12
2019-04-30T11:37:15.419Z,19.49
2019-04-30T11:38:15.384Z,18.99
2019-04-30T11:39:15.369Z,19.41
2019-04-30T11:40:15.381Z,20.00
2019-04-30T11:41:15.351Z,19.90
2019-04-30T11:42:15.351Z,19.78
2019-04-30T11:43:15.344Z,18.79
2019-04-30T11:44:27.773Z,18.57
2019-04-30T11:45:16.353Z,17.88
2019-04-30T11:46:15.321Z,18.37
2019-04-30T11:47:15.291Z,17.75
2019-04-30T11:48:15.299Z,17.94
2019-04-30T11:49:15.287Z,17.34
2019-04-30T11:50:15.281Z,17.03
2019-04-30T11:51:15.257Z,17.04
2019-04-30T11:52:15.242Z,16.65
2019-04-30T11:53:25.420Z,17.05
2019-04-30T11:54:16.222Z,16.44
2019-04-30T11:55:15.248Z,16.34
2019-04-30T11:56:15.217Z,16.53
2019-04-30T11:57:15.190Z,17.32
2019-04-30T11:58:21.617Z,16.74
2019-04-30T11:59:16.189Z,16.93
2019-04-30T12:00:15.208Z,17.02
2019-04-30T12:01:15.164Z,16.92
2019-04-30T12:02:15.146Z,16.71
2019-04-30T12:03:15.140Z,17.10
2019-04-30T12:04:15.130Z,16.10
2019-04-30T12:05:15.137Z,17.29
2019-04-30T12:06:15.125Z,16.38
2019-04-30T12:07:15.145Z,15.79
2019-04-30T12:08:15.085Z,16.19
2019-04-30T12:09:15.078Z,15.89
2019-04-30T12:10:15.087Z,16.28
2019-04-30T12:11:15.424Z,15.39
2019-04-30T12:12:15.046Z,15.28
2019-04-30T12:13:15.671Z,15.48
2019-04-30T12:14:15.030Z,14.79
2019-04-30T12:15:15.045Z,15.08
2019-04-30T12:16:15.017Z,15.39
2019-04-30T12:17:15.001Z,15.78
2019-04-30T12:18:14.999Z,15.39
2019-04-30T12:19:14.996Z,15.58
2019-04-30T12:20:15.012Z,15.48
2019-04-30T12:21:14.961Z,15.57
2019-04-30T12:22:14.960Z,14.87
2019-04-30T12:23:14.966Z,14.47
2019-04-30T12:24:14.937Z,14.56
2019-04-30T12:25:14.940Z,13.98
2019-04-30T12:26:14.913Z,15.17
2019-04-30T12:27:14.908Z,15.37
2019-04-30T12:28:14.903Z,15.26
2019-04-30T12:29:14.880Z,14.95
2019-04-30T12:30:14.888Z,15.06
2019-04-30T12:31:14.881Z,14.65
2019-04-30T12:32:14.854Z,15.73
2019-04-30T12:33:14.846Z,15.64
2019-04-30T12:34:14.833Z,15.37
2019-04-30T12:35:14.852Z,15.48
2019-04-30T12:36:14.851Z,15.79
2019-04-30T12:37:14.815Z,16.68
2019-04-30T12:38:14.798Z,16.97
2019-04-30T12:39:14.828Z,15.51
2019-04-30T12:40:26.749Z,16.80
2019-04-30T12:41:15.767Z,16.79
2019-04-30T12:42:14.759Z,16.61
2019-04-30T12:43:14.754Z,16.93
2019-04-30T12:44:14.779Z,17.02
2019-04-30T12:45:14.768Z,16.50
2019-04-30T12:46:14.723Z,15.89
2019-04-30T12:47:14.737Z,15.49
2019-04-30T12:48:14.704Z,15.30
2019-04-30T12:49:14.699Z,15.30
2019-04-30T12:50:14.709Z,15.01
2019-04-30T12:51:14.700Z,15.42
2019-04-30T12:52:14.673Z,16.21
2019-04-30T12:53:14.660Z,15.92
2019-04-30T12:54:14.667Z,16.59